sensor_id;sensor_type;location;lat;lon;timestamp;temperature;humidity
27439;DHT22;14887;51.252;7.470;2024-03-06T00:01:32;4.20;1.00
27439;DHT22;14887;51.252;7.470;2024-03-06T00:03:59;4.20;1.00
27439;DHT22;14887;51.252;7.470;2024-03-06T00:06:25;4.20;1.00
27439;DHT22;14887;51.252;7.470;2024-03-06T00:08:50;4.20;1.00
27439;DHT22;14887;51.252;7.470;2024-03-06T00:11:16;4.10;1.00
27439;DHT22;14887;51.252;7.470;2024-03-06T00:13:42;4.10;1.00
27439;DHT22;14887;51.252;7.470;2024-03-06T00:16:08;4.10;1.00
27439;DHT22;14887;51.252;7.470;2024-03-06T00:18:34;4.10;1.00
27439;DHT22;14887;51.252;7.470;2024-03-06T00:20:59;4.20;1.00
27439;DHT22;14887;51.252;7.470;2024-03-06T00:23:25;4.10;1.00
27439;DHT22;14887;51.252;7.470;2024-03-06T00:25:51;4.10;1.00
27439;DHT22;14887;51.252;7.470;2024-03-06T00:28:16;4.10;1.00
27439;DHT22;14887;51.252;7.470;2024-03-06T00:30:42;4.10;1.00
27439;DHT22;14887;51.252;7.470;2024-03-06T00:33:08;4.20;1.00
27439;DHT22;14887;51.252;7.470;2024-03-06T00:35:33;4.20;1.00
27439;DHT22;14887;51.252;7.470;2024-03-06T00:37:58;4.20;1.00
27439;DHT22;14887;51.252;7.470;2024-03-06T00:40:28;4.20;1.00
27439;DHT22;14887;51.252;7.470;2024-03-06T00:42:56;4.20;1.00
27439;DHT22;14887;51.252;7.470;2024-03-06T00:45:22;4.10;1.00
27439;DHT22;14887;51.252;7.470;2024-03-06T00:47:48;4.10;1.00
27439;DHT22;14887;51.252;7.470;2024-03-06T00:50:13;4.10;1.00
27439;DHT22;14887;51.252;7.470;2024-03-06T00:52:39;4.10;1.00
27439;DHT22;14887;51.252;7.470;2024-03-06T00:55:05;4.10;1.00
27439;DHT22;14887;51.252;7.470;2024-03-06T00:57:31;4.10;1.00
27439;DHT22;14887;51.252;7.470;2024-03-06T00:59:56;4.10;1.00
27439;DHT22;14887;51.252;7.470;2024-03-06T01:02:22;4.10;1.00
27439;DHT22;14887;51.252;7.470;2024-03-06T01:04:47;4.10;1.00
27439;DHT22;14887;51.252;7.470;2024-03-06T01:07:13;4.10;1.00
27439;DHT22;14887;51.252;7.470;2024-03-06T01:09:38;4.10;1.00
27439;DHT22;14887;51.252;7.470;2024-03-06T01:12:04;4.10;1.00
27439;DHT22;14887;51.252;7.470;2024-03-06T01:14:31;4.10;1.00
27439;DHT22;14887;51.252;7.470;2024-03-06T01:16:56;4.10;1.00
27439;DHT22;14887;51.252;7.470;2024-03-06T01:19:22;4.20;1.00
27439;DHT22;14887;51.252;7.470;2024-03-06T01:21:48;4.10;1.00
27439;DHT22;14887;51.252;7.470;2024-03-06T01:24:14;4.10;1.00
27439;DHT22;14887;51.252;7.470;2024-03-06T01:26:39;4.00;1.00
27439;DHT22;14887;51.252;7.470;2024-03-06T01:29:06;4.00;1.00
27439;DHT22;14887;51.252;7.470;2024-03-06T01:31:31;4.00;1.00
27439;DHT22;14887;51.252;7.470;2024-03-06T01:33:57;4.00;1.00
27439;DHT22;14887;51.252;7.470;2024-03-06T01:36:22;4.00;1.00
27439;DHT22;14887;51.252;7.470;2024-03-06T01:38:48;4.00;1.00
27439;DHT22;14887;51.252;7.470;2024-03-06T01:41:14;4.00;1.00
27439;DHT22;14887;51.252;7.470;2024-03-06T01:43:40;4.00;1.00
27439;DHT22;14887;51.252;7.470;2024-03-06T01:46:06;4.00;1.00
27439;DHT22;14887;51.252;7.470;2024-03-06T01:48:33;4.00;1.00
27439;DHT22;14887;51.252;7.470;2024-03-06T01:51:01;4.00;1.00
27439;DHT22;14887;51.252;7.470;2024-03-06T01:53:29;4.00;1.00
27439;DHT22;14887;51.252;7.470;2024-03-06T01:55:56;4.00;1.00
27439;DHT22;14887;51.252;7.470;2024-03-06T01:58:23;4.00;1.00
27439;DHT22;14887;51.252;7.470;2024-03-06T02:00:50;4.00;1.00
27439;DHT22;14887;51.252;7.470;2024-03-06T02:03:18;4.00;1.00
27439;DHT22;14887;51.252;7.470;2024-03-06T02:05:49;3.90;1.00
27439;DHT22;14887;51.252;7.470;2024-03-06T02:08:18;3.90;1.00
27439;DHT22;14887;51.252;7.470;2024-03-06T02:10:45;3.90;1.00
27439;DHT22;14887;51.252;7.470;2024-03-06T02:13:14;3.90;1.00
27439;DHT22;14887;51.252;7.470;2024-03-06T02:15:40;3.90;1.00
27439;DHT22;14887;51.252;7.470;2024-03-06T02:18:06;3.90;1.00
27439;DHT22;14887;51.252;7.470;2024-03-06T02:20:34;3.90;1.00
27439;DHT22;14887;51.252;7.470;2024-03-06T02:23:02;4.00;1.00
27439;DHT22;14887;51.252;7.470;2024-03-06T02:25:33;4.00;1.00
27439;DHT22;14887;51.252;7.470;2024-03-06T02:27:59;3.90;1.00
27439;DHT22;14887;51.252;7.470;2024-03-06T02:30:27;3.80;1.00
27439;DHT22;14887;51.252;7.470;2024-03-06T02:32:53;3.70;1.00
27439;DHT22;14887;51.252;7.470;2024-03-06T02:35:20;3.70;1.00
27439;DHT22;14887;51.252;7.470;2024-03-06T02:37:47;3.60;1.00
27439;DHT22;14887;51.252;7.470;2024-03-06T02:40:17;3.50;1.00
27439;DHT22;14887;51.252;7.470;2024-03-06T02:42:48;3.40;1.00
27439;DHT22;14887;51.252;7.470;2024-03-06T02:45:17;3.30;1.00
27439;DHT22;14887;51.252;7.470;2024-03-06T02:47:44;3.20;1.00
27439;DHT22;14887;51.252;7.470;2024-03-06T02:50:14;3.10;1.00
27439;DHT22;14887;51.252;7.470;2024-03-06T02:52:42;3.20;1.00
27439;DHT22;14887;51.252;7.470;2024-03-06T02:55:08;3.20;1.00
27439;DHT22;14887;51.252;7.470;2024-03-06T02:57:38;3.30;1.00
27439;DHT22;14887;51.252;7.470;2024-03-06T03:00:10;3.30;1.00
27439;DHT22;14887;51.252;7.470;2024-03-06T03:02:43;3.20;1.00
27439;DHT22;14887;51.252;7.470;2024-03-06T03:05:14;3.20;1.00
27439;DHT22;14887;51.252;7.470;2024-03-06T03:07:44;3.20;1.00
27439;DHT22;14887;51.252;7.470;2024-03-06T03:10:10;3.20;1.00
27439;DHT22;14887;51.252;7.470;2024-03-06T03:12:42;3.20;1.00
27439;DHT22;14887;51.252;7.470;2024-03-06T03:15:14;3.10;1.00
27439;DHT22;14887;51.252;7.470;2024-03-06T03:17:40;3.10;1.00
27439;DHT22;14887;51.252;7.470;2024-03-06T03:20:12;3.00;1.00
27439;DHT22;14887;51.252;7.470;2024-03-06T03:22:43;3.00;1.00
27439;DHT22;14887;51.252;7.470;2024-03-06T03:25:10;2.90;1.00
27439;DHT22;14887;51.252;7.470;2024-03-06T03:27:38;2.90;1.00
27439;DHT22;14887;51.252;7.470;2024-03-06T03:30:10;2.90;1.00
27439;DHT22;14887;51.252;7.470;2024-03-06T03:32:42;2.90;1.00
27439;DHT22;14887;51.252;7.470;2024-03-06T03:35:14;2.90;1.00
27439;DHT22;14887;51.252;7.470;2024-03-06T03:37:42;2.80;1.00
27439;DHT22;14887;51.252;7.470;2024-03-06T03:40:10;2.70;1.00
27439;DHT22;14887;51.252;7.470;2024-03-06T03:42:38;2.60;1.00
27439;DHT22;14887;51.252;7.470;2024-03-06T03:45:04;2.50;1.00
27439;DHT22;14887;51.252;7.470;2024-03-06T03:47:36;2.30;1.00
27439;DHT22;14887;51.252;7.470;2024-03-06T03:50:13;2.30;1.00
27439;DHT22;14887;51.252;7.470;2024-03-06T03:52:45;2.20;1.00
27439;DHT22;14887;51.252;7.470;2024-03-06T03:55:12;2.10;1.00
27439;DHT22;14887;51.252;7.470;2024-03-06T03:57:54;2.00;1.00
27439;DHT22;14887;51.252;7.470;2024-03-06T04:00:20;1.90;1.00
27439;DHT22;14887;51.252;7.470;2024-03-06T04:02:49;1.90;1.00
27439;DHT22;14887;51.252;7.470;2024-03-06T04:05:16;1.80;1.00
27439;DHT22;14887;51.252;7.470;2024-03-06T04:07:47;1.80;1.00
27439;DHT22;14887;51.252;7.470;2024-03-06T04:10:14;1.80;1.00
27439;DHT22;14887;51.252;7.470;2024-03-06T04:12:50;1.80;1.00
27439;DHT22;14887;51.252;7.470;2024-03-06T04:15:21;1.70;1.00
27439;DHT22;14887;51.252;7.470;2024-03-06T04:17:50;1.90;1.00
27439;DHT22;14887;51.252;7.470;2024-03-06T04:20:18;1.90;1.00
27439;DHT22;14887;51.252;7.470;2024-03-06T04:22:44;1.80;1.00
27439;DHT22;14887;51.252;7.470;2024-03-06T04:25:13;1.80;1.00
27439;DHT22;14887;51.252;7.470;2024-03-06T04:27:39;1.80;1.00
27439;DHT22;14887;51.252;7.470;2024-03-06T04:30:08;1.80;1.00
27439;DHT22;14887;51.252;7.470;2024-03-06T04:32:38;1.80;1.00
27439;DHT22;14887;51.252;7.470;2024-03-06T04:35:05;1.80;1.00
27439;DHT22;14887;51.252;7.470;2024-03-06T04:40:21;2.00;1.00
27439;DHT22;14887;51.252;7.470;2024-03-06T04:42:48;2.00;1.00
27439;DHT22;14887;51.252;7.470;2024-03-06T04:45:20;2.00;1.00
27439;DHT22;14887;51.252;7.470;2024-03-06T04:47:49;2.00;1.00
27439;DHT22;14887;51.252;7.470;2024-03-06T04:50:17;1.90;1.00
27439;DHT22;14887;51.252;7.470;2024-03-06T04:52:49;2.00;1.00
27439;DHT22;14887;51.252;7.470;2024-03-06T04:55:19;1.90;1.00
27439;DHT22;14887;51.252;7.470;2024-03-06T04:57:48;1.90;1.00
27439;DHT22;14887;51.252;7.470;2024-03-06T05:00:16;1.90;1.00
27439;DHT22;14887;51.252;7.470;2024-03-06T05:02:43;1.90;1.00
27439;DHT22;14887;51.252;7.470;2024-03-06T05:05:11;1.80;1.00
27439;DHT22;14887;51.252;7.470;2024-03-06T05:07:38;1.80;1.00
27439;DHT22;14887;51.252;7.470;2024-03-06T05:10:05;1.70;1.00
27439;DHT22;14887;51.252;7.470;2024-03-06T05:12:37;1.70;1.00
27439;DHT22;14887;51.252;7.470;2024-03-06T05:15:03;1.70;1.00
27439;DHT22;14887;51.252;7.470;2024-03-06T05:17:31;1.80;1.00
27439;DHT22;14887;51.252;7.470;2024-03-06T05:20:03;1.80;1.00
27439;DHT22;14887;51.252;7.470;2024-03-06T05:22:30;1.80;1.00
27439;DHT22;14887;51.252;7.470;2024-03-06T05:25:04;1.70;1.00
27439;DHT22;14887;51.252;7.470;2024-03-06T05:27:32;1.70;1.00
27439;DHT22;14887;51.252;7.470;2024-03-06T05:30:02;1.70;1.00
27439;DHT22;14887;51.252;7.470;2024-03-06T05:32:31;1.70;1.00
27439;DHT22;14887;51.252;7.470;2024-03-06T05:35:04;1.80;1.00
27439;DHT22;14887;51.252;7.470;2024-03-06T05:37:38;1.90;1.00
27439;DHT22;14887;51.252;7.470;2024-03-06T05:40:13;1.90;1.00
27439;DHT22;14887;51.252;7.470;2024-03-06T05:42:49;1.90;1.00
27439;DHT22;14887;51.252;7.470;2024-03-06T05:45:15;1.90;1.00
27439;DHT22;14887;51.252;7.470;2024-03-06T05:47:42;1.80;1.00
27439;DHT22;14887;51.252;7.470;2024-03-06T05:50:09;1.90;1.00
27439;DHT22;14887;51.252;7.470;2024-03-06T05:52:40;1.80;1.00
27439;DHT22;14887;51.252;7.470;2024-03-06T05:55:06;1.70;1.00
27439;DHT22;14887;51.252;7.470;2024-03-06T05:57:35;1.60;1.00
27439;DHT22;14887;51.252;7.470;2024-03-06T06:00:03;1.60;1.00
27439;DHT22;14887;51.252;7.470;2024-03-06T06:02:37;1.50;1.00
27439;DHT22;14887;51.252;7.470;2024-03-06T06:05:08;1.50;1.00
27439;DHT22;14887;51.252;7.470;2024-03-06T06:07:36;1.50;1.00
27439;DHT22;14887;51.252;7.470;2024-03-06T06:10:04;1.60;1.00
27439;DHT22;14887;51.252;7.470;2024-03-06T06:12:34;1.70;1.00
27439;DHT22;14887;51.252;7.470;2024-03-06T06:15:01;1.80;1.00
27439;DHT22;14887;51.252;7.470;2024-03-06T06:17:34;1.90;1.00
27439;DHT22;14887;51.252;7.470;2024-03-06T06:20:06;1.90;1.00
27439;DHT22;14887;51.252;7.470;2024-03-06T06:22:38;2.00;1.00
27439;DHT22;14887;51.252;7.470;2024-03-06T06:25:07;2.00;1.00
27439;DHT22;14887;51.252;7.470;2024-03-06T06:27:36;2.00;1.00
27439;DHT22;14887;51.252;7.470;2024-03-06T06:30:31;2.00;1.00
27439;DHT22;14887;51.252;7.470;2024-03-06T06:32:59;1.90;1.00
27439;DHT22;14887;51.252;7.470;2024-03-06T06:35:28;1.80;1.00
27439;DHT22;14887;51.252;7.470;2024-03-06T06:38:04;1.90;1.00
27439;DHT22;14887;51.252;7.470;2024-03-06T06:40:39;2.00;1.00
27439;DHT22;14887;51.252;7.470;2024-03-06T06:43:10;2.10;1.00
27439;DHT22;14887;51.252;7.470;2024-03-06T06:45:36;2.20;1.00
27439;DHT22;14887;51.252;7.470;2024-03-06T06:48:06;2.30;1.00
27439;DHT22;14887;51.252;7.470;2024-03-06T06:50:38;2.40;1.00
27439;DHT22;14887;51.252;7.470;2024-03-06T06:53:06;2.60;1.00
27439;DHT22;14887;51.252;7.470;2024-03-06T06:55:31;2.70;1.00
27439;DHT22;14887;51.252;7.470;2024-03-06T06:57:57;2.70;1.00
27439;DHT22;14887;51.252;7.470;2024-03-06T07:00:25;2.90;1.00
27439;DHT22;14887;51.252;7.470;2024-03-06T07:02:53;2.90;1.00
27439;DHT22;14887;51.252;7.470;2024-03-06T07:05:20;3.00;1.00
27439;DHT22;14887;51.252;7.470;2024-03-06T07:07:51;3.00;1.00
27439;DHT22;14887;51.252;7.470;2024-03-06T07:10:20;3.10;1.00
27439;DHT22;14887;51.252;7.470;2024-03-06T07:12:48;3.20;1.00
27439;DHT22;14887;51.252;7.470;2024-03-06T07:15:18;3.30;1.00
27439;DHT22;14887;51.252;7.470;2024-03-06T07:17:51;3.30;1.00
27439;DHT22;14887;51.252;7.470;2024-03-06T07:20:18;3.30;1.00
27439;DHT22;14887;51.252;7.470;2024-03-06T07:22:44;3.40;1.00
27439;DHT22;14887;51.252;7.470;2024-03-06T07:25:10;3.40;1.00
27439;DHT22;14887;51.252;7.470;2024-03-06T07:27:43;3.40;1.00
27439;DHT22;14887;51.252;7.470;2024-03-06T07:30:17;3.40;1.00
27439;DHT22;14887;51.252;7.470;2024-03-06T07:32:46;3.50;1.00
27439;DHT22;14887;51.252;7.470;2024-03-06T07:35:13;3.60;1.00
27439;DHT22;14887;51.252;7.470;2024-03-06T07:37:39;3.60;1.00
27439;DHT22;14887;51.252;7.470;2024-03-06T07:40:06;3.60;1.00
27439;DHT22;14887;51.252;7.470;2024-03-06T07:42:35;3.60;1.00
27439;DHT22;14887;51.252;7.470;2024-03-06T07:45:03;3.60;1.00
27439;DHT22;14887;51.252;7.470;2024-03-06T07:47:30;3.60;1.00
27439;DHT22;14887;51.252;7.470;2024-03-06T07:49:56;3.80;1.00
27439;DHT22;14887;51.252;7.470;2024-03-06T07:52:21;3.90;1.00
27439;DHT22;14887;51.252;7.470;2024-03-06T07:54:47;4.20;1.00
27439;DHT22;14887;51.252;7.470;2024-03-06T07:57:12;5.20;1.00
27439;DHT22;14887;51.252;7.470;2024-03-06T07:59:38;6.30;1.00
27439;DHT22;14887;51.252;7.470;2024-03-06T08:02:03;7.40;1.00
27439;DHT22;14887;51.252;7.470;2024-03-06T08:04:30;8.60;1.00
27439;DHT22;14887;51.252;7.470;2024-03-06T08:06:55;9.20;1.00
27439;DHT22;14887;51.252;7.470;2024-03-06T08:09:21;9.60;1.00
27439;DHT22;14887;51.252;7.470;2024-03-06T08:11:47;9.80;14.00
27439;DHT22;14887;51.252;7.470;2024-03-06T08:14:12;10.10;38.90
27439;DHT22;14887;51.252;7.470;2024-03-06T08:16:40;10.20;25.40
27439;DHT22;14887;51.252;7.470;2024-03-06T08:19:05;10.30;54.80
27439;DHT22;14887;51.252;7.470;2024-03-06T08:21:31;10.20;1.00
27439;DHT22;14887;51.252;7.470;2024-03-06T08:23:56;10.20;1.00
27439;DHT22;14887;51.252;7.470;2024-03-06T08:26:22;10.30;99.90
27439;DHT22;14887;51.252;7.470;2024-03-06T08:28:48;10.40;99.90
27439;DHT22;14887;51.252;7.470;2024-03-06T08:31:14;10.60;99.90
27439;DHT22;14887;51.252;7.470;2024-03-06T08:33:39;11.00;1.00
27439;DHT22;14887;51.252;7.470;2024-03-06T08:36:05;11.10;99.90
27439;DHT22;14887;51.252;7.470;2024-03-06T08:38:31;11.20;1.00
27439;DHT22;14887;51.252;7.470;2024-03-06T08:40:56;11.50;1.00
27439;DHT22;14887;51.252;7.470;2024-03-06T08:43:22;11.60;1.00
27439;DHT22;14887;51.252;7.470;2024-03-06T08:45:47;12.10;99.90
27439;DHT22;14887;51.252;7.470;2024-03-06T08:48:13;12.30;16.10
27439;DHT22;14887;51.252;7.470;2024-03-06T08:50:38;12.50;1.00
27439;DHT22;14887;51.252;7.470;2024-03-06T08:53:04;12.40;1.00
27439;DHT22;14887;51.252;7.470;2024-03-06T08:55:29;12.50;1.00
27439;DHT22;14887;51.252;7.470;2024-03-06T08:57:55;12.80;1.00
27439;DHT22;14887;51.252;7.470;2024-03-06T09:00:20;13.10;1.00
27439;DHT22;14887;51.252;7.470;2024-03-06T09:02:46;13.30;1.00
27439;DHT22;14887;51.252;7.470;2024-03-06T09:05:12;13.60;1.00
27439;DHT22;14887;51.252;7.470;2024-03-06T09:07:41;13.50;1.00
27439;DHT22;14887;51.252;7.470;2024-03-06T09:10:08;13.40;1.00
27439;DHT22;14887;51.252;7.470;2024-03-06T09:12:35;13.50;1.00
27439;DHT22;14887;51.252;7.470;2024-03-06T09:15:01;13.70;1.00
27439;DHT22;14887;51.252;7.470;2024-03-06T09:17:27;13.90;1.00
27439;DHT22;14887;51.252;7.470;2024-03-06T09:19:53;13.80;1.00
27439;DHT22;14887;51.252;7.470;2024-03-06T09:22:19;14.10;1.00
27439;DHT22;14887;51.252;7.470;2024-03-06T09:24:44;14.00;1.00
27439;DHT22;14887;51.252;7.470;2024-03-06T09:27:10;13.60;1.00
27439;DHT22;14887;51.252;7.470;2024-03-06T09:29:35;13.90;1.00
27439;DHT22;14887;51.252;7.470;2024-03-06T09:32:01;13.80;1.00
27439;DHT22;14887;51.252;7.470;2024-03-06T09:34:27;13.50;1.00
27439;DHT22;14887;51.252;7.470;2024-03-06T09:36:52;13.60;1.00
27439;DHT22;14887;51.252;7.470;2024-03-06T09:39:19;13.80;1.00
27439;DHT22;14887;51.252;7.470;2024-03-06T09:41:51;13.60;1.00
27439;DHT22;14887;51.252;7.470;2024-03-06T09:44:18;13.80;1.00
27439;DHT22;14887;51.252;7.470;2024-03-06T09:46:45;14.00;1.00
27439;DHT22;14887;51.252;7.470;2024-03-06T09:49:12;14.10;1.00
27439;DHT22;14887;51.252;7.470;2024-03-06T09:51:44;14.10;1.00
27439;DHT22;14887;51.252;7.470;2024-03-06T09:54:15;13.90;1.00
27439;DHT22;14887;51.252;7.470;2024-03-06T09:56:44;13.80;1.00
27439;DHT22;14887;51.252;7.470;2024-03-06T09:59:14;13.50;1.00
27439;DHT22;14887;51.252;7.470;2024-03-06T10:01:56;13.30;1.00
27439;DHT22;14887;51.252;7.470;2024-03-06T10:04:24;13.20;1.00
27439;DHT22;14887;51.252;7.470;2024-03-06T10:06:54;13.50;1.00
27439;DHT22;14887;51.252;7.470;2024-03-06T10:09:21;13.70;1.00
27439;DHT22;14887;51.252;7.470;2024-03-06T10:11:46;13.80;1.00
27439;DHT22;14887;51.252;7.470;2024-03-06T10:14:13;13.60;1.00
27439;DHT22;14887;51.252;7.470;2024-03-06T10:16:52;13.50;1.00
27439;DHT22;14887;51.252;7.470;2024-03-06T10:19:18;13.70;1.00
27439;DHT22;14887;51.252;7.470;2024-03-06T10:21:47;14.00;1.00
27439;DHT22;14887;51.252;7.470;2024-03-06T10:24:20;13.90;1.00
27439;DHT22;14887;51.252;7.470;2024-03-06T10:26:46;13.90;1.00
27439;DHT22;14887;51.252;7.470;2024-03-06T10:29:16;13.80;1.00
27439;DHT22;14887;51.252;7.470;2024-03-06T10:31:47;13.80;1.00
27439;DHT22;14887;51.252;7.470;2024-03-06T10:34:13;13.70;1.00
27439;DHT22;14887;51.252;7.470;2024-03-06T10:36:38;14.00;1.00
27439;DHT22;14887;51.252;7.470;2024-03-06T10:39:06;14.20;1.00
27439;DHT22;14887;51.252;7.470;2024-03-06T10:41:33;14.50;1.00
27439;DHT22;14887;51.252;7.470;2024-03-06T10:44:00;14.60;1.00
27439;DHT22;14887;51.252;7.470;2024-03-06T10:46:27;14.90;1.00
27439;DHT22;14887;51.252;7.470;2024-03-06T10:48:55;15.20;1.00
27439;DHT22;14887;51.252;7.470;2024-03-06T10:51:24;14.90;1.00
27439;DHT22;14887;51.252;7.470;2024-03-06T10:53:50;14.90;1.00
27439;DHT22;14887;51.252;7.470;2024-03-06T10:56:17;14.90;1.00
27439;DHT22;14887;51.252;7.470;2024-03-06T10:58:44;14.90;1.00
27439;DHT22;14887;51.252;7.470;2024-03-06T11:01:10;14.70;1.00
27439;DHT22;14887;51.252;7.470;2024-03-06T11:03:38;15.00;1.00
27439;DHT22;14887;51.252;7.470;2024-03-06T11:06:03;14.90;1.00
27439;DHT22;14887;51.252;7.470;2024-03-06T11:08:29;14.80;1.00
27439;DHT22;14887;51.252;7.470;2024-03-06T11:11:19;14.80;1.00
27439;DHT22;14887;51.252;7.470;2024-03-06T11:13:46;14.40;99.90
27439;DHT22;14887;51.252;7.470;2024-03-06T11:16:11;14.50;99.90
27439;DHT22;14887;51.252;7.470;2024-03-06T11:23:29;14.90;1.00
27439;DHT22;14887;51.252;7.470;2024-03-06T11:25:55;15.20;1.00
27439;DHT22;14887;51.252;7.470;2024-03-06T11:28:28;15.10;99.90
27439;DHT22;14887;51.252;7.470;2024-03-06T11:31:13;15.00;99.90
27439;DHT22;14887;51.252;7.470;2024-03-06T11:33:45;15.00;99.90
27439;DHT22;14887;51.252;7.470;2024-03-06T11:38:53;14.70;99.90
27439;DHT22;14887;51.252;7.470;2024-03-06T11:41:22;14.50;99.90
27439;DHT22;14887;51.252;7.470;2024-03-06T11:43:49;14.40;99.90
27439;DHT22;14887;51.252;7.470;2024-03-06T11:46:16;14.00;99.90
27439;DHT22;14887;51.252;7.470;2024-03-06T11:48:43;13.70;99.90
27439;DHT22;14887;51.252;7.470;2024-03-06T11:51:09;14.00;99.90
27439;DHT22;14887;51.252;7.470;2024-03-06T11:53:34;14.00;99.90
27439;DHT22;14887;51.252;7.470;2024-03-06T11:56:01;14.00;99.90
27439;DHT22;14887;51.252;7.470;2024-03-06T11:58:27;13.90;99.90
27439;DHT22;14887;51.252;7.470;2024-03-06T12:00:54;14.00;99.90
27439;DHT22;14887;51.252;7.470;2024-03-06T12:03:20;13.70;99.90
27439;DHT22;14887;51.252;7.470;2024-03-06T12:05:46;13.70;99.90
27439;DHT22;14887;51.252;7.470;2024-03-06T12:08:11;13.50;99.90
27439;DHT22;14887;51.252;7.470;2024-03-06T12:10:38;13.50;99.90
27439;DHT22;14887;51.252;7.470;2024-03-06T12:13:04;13.30;99.90
27439;DHT22;14887;51.252;7.470;2024-03-06T12:15:30;13.30;99.90
27439;DHT22;14887;51.252;7.470;2024-03-06T12:17:56;13.40;99.90
27439;DHT22;14887;51.252;7.470;2024-03-06T12:20:21;13.80;99.90
27439;DHT22;14887;51.252;7.470;2024-03-06T12:22:50;14.40;99.90
27439;DHT22;14887;51.252;7.470;2024-03-06T12:25:20;15.30;99.90
27439;DHT22;14887;51.252;7.470;2024-03-06T12:27:46;16.00;99.90
27439;DHT22;14887;51.252;7.470;2024-03-06T12:30:12;16.00;99.90
27439;DHT22;14887;51.252;7.470;2024-03-06T12:32:39;16.40;99.90
27439;DHT22;14887;51.252;7.470;2024-03-06T12:35:05;16.50;99.90
27439;DHT22;14887;51.252;7.470;2024-03-06T12:37:33;17.10;99.90
27439;DHT22;14887;51.252;7.470;2024-03-06T12:39:59;17.60;99.90
27439;DHT22;14887;51.252;7.470;2024-03-06T12:42:25;17.70;99.90
27439;DHT22;14887;51.252;7.470;2024-03-06T12:44:51;17.50;99.90
27439;DHT22;14887;51.252;7.470;2024-03-06T12:47:17;16.90;99.90
27439;DHT22;14887;51.252;7.470;2024-03-06T12:49:42;16.50;99.90
27439;DHT22;14887;51.252;7.470;2024-03-06T12:52:08;15.80;99.90
27439;DHT22;14887;51.252;7.470;2024-03-06T12:54:34;15.30;99.90
27439;DHT22;14887;51.252;7.470;2024-03-06T12:57:00;14.90;99.90
27439;DHT22;14887;51.252;7.470;2024-03-06T12:59:25;14.40;99.90
27439;DHT22;14887;51.252;7.470;2024-03-06T13:01:51;14.20;99.90
27439;DHT22;14887;51.252;7.470;2024-03-06T13:04:16;14.10;99.90
27439;DHT22;14887;51.252;7.470;2024-03-06T13:06:42;13.60;99.90
27439;DHT22;14887;51.252;7.470;2024-03-06T13:09:07;13.60;99.90
27439;DHT22;14887;51.252;7.470;2024-03-06T13:11:33;13.70;99.90
27439;DHT22;14887;51.252;7.470;2024-03-06T13:13:58;13.60;99.90
27439;DHT22;14887;51.252;7.470;2024-03-06T13:16:26;14.00;99.90
27439;DHT22;14887;51.252;7.470;2024-03-06T13:18:51;14.20;99.90
27439;DHT22;14887;51.252;7.470;2024-03-06T13:21:20;13.90;99.90
27439;DHT22;14887;51.252;7.470;2024-03-06T13:23:45;13.70;99.90
27439;DHT22;14887;51.252;7.470;2024-03-06T13:26:11;13.50;99.90
27439;DHT22;14887;51.252;7.470;2024-03-06T13:28:38;13.50;99.90
27439;DHT22;14887;51.252;7.470;2024-03-06T13:31:04;13.30;99.90
27439;DHT22;14887;51.252;7.470;2024-03-06T13:33:32;13.40;99.90
27439;DHT22;14887;51.252;7.470;2024-03-06T13:35:57;13.50;99.90
27439;DHT22;14887;51.252;7.470;2024-03-06T13:38:23;13.50;99.90
27439;DHT22;14887;51.252;7.470;2024-03-06T13:40:48;13.70;99.90
27439;DHT22;14887;51.252;7.470;2024-03-06T13:43:14;13.80;99.90
27439;DHT22;14887;51.252;7.470;2024-03-06T13:45:49;13.80;99.90
27439;DHT22;14887;51.252;7.470;2024-03-06T13:48:15;13.40;99.90
27439;DHT22;14887;51.252;7.470;2024-03-06T13:50:42;13.40;99.90
27439;DHT22;14887;51.252;7.470;2024-03-06T13:53:08;13.30;99.90
27439;DHT22;14887;51.252;7.470;2024-03-06T13:55:34;13.20;99.90
27439;DHT22;14887;51.252;7.470;2024-03-06T13:58:00;13.20;99.90
27439;DHT22;14887;51.252;7.470;2024-03-06T14:00:25;13.10;99.90
27439;DHT22;14887;51.252;7.470;2024-03-06T14:02:51;13.00;99.90
27439;DHT22;14887;51.252;7.470;2024-03-06T14:05:16;13.00;99.90
27439;DHT22;14887;51.252;7.470;2024-03-06T14:07:42;12.60;99.90
27439;DHT22;14887;51.252;7.470;2024-03-06T14:10:08;12.50;99.90
27439;DHT22;14887;51.252;7.470;2024-03-06T14:12:34;12.20;99.90
27439;DHT22;14887;51.252;7.470;2024-03-06T14:15:01;11.90;99.90
27439;DHT22;14887;51.252;7.470;2024-03-06T14:17:26;11.80;99.90
27439;DHT22;14887;51.252;7.470;2024-03-06T14:19:52;11.50;99.90
27439;DHT22;14887;51.252;7.470;2024-03-06T14:22:17;11.80;99.90
27439;DHT22;14887;51.252;7.470;2024-03-06T14:24:43;12.00;99.90
27439;DHT22;14887;51.252;7.470;2024-03-06T14:27:08;12.30;99.90
27439;DHT22;14887;51.252;7.470;2024-03-06T14:29:39;12.60;99.90
27439;DHT22;14887;51.252;7.470;2024-03-06T14:32:07;12.90;99.90
27439;DHT22;14887;51.252;7.470;2024-03-06T14:34:35;12.90;99.90
27439;DHT22;14887;51.252;7.470;2024-03-06T14:37:01;12.80;99.90
27439;DHT22;14887;51.252;7.470;2024-03-06T14:39:28;12.70;99.90
27439;DHT22;14887;51.252;7.470;2024-03-06T14:42:01;12.70;99.90
27439;DHT22;14887;51.252;7.470;2024-03-06T14:44:32;12.80;99.90
27439;DHT22;14887;51.252;7.470;2024-03-06T14:47:06;13.00;99.90
27439;DHT22;14887;51.252;7.470;2024-03-06T14:49:33;13.30;99.90
27439;DHT22;14887;51.252;7.470;2024-03-06T14:52:03;13.50;99.90
27439;DHT22;14887;51.252;7.470;2024-03-06T14:54:35;13.70;99.90
27439;DHT22;14887;51.252;7.470;2024-03-06T14:57:05;13.90;99.90
27439;DHT22;14887;51.252;7.470;2024-03-06T14:59:33;14.20;99.90
27439;DHT22;14887;51.252;7.470;2024-03-06T15:02:01;14.10;99.90
27439;DHT22;14887;51.252;7.470;2024-03-06T15:04:27;13.90;99.90
27439;DHT22;14887;51.252;7.470;2024-03-06T15:06:55;13.30;99.90
27439;DHT22;14887;51.252;7.470;2024-03-06T15:09:21;13.30;99.90
27439;DHT22;14887;51.252;7.470;2024-03-06T15:11:51;13.30;99.90
27439;DHT22;14887;51.252;7.470;2024-03-06T15:14:19;13.10;99.90
27439;DHT22;14887;51.252;7.470;2024-03-06T15:16:48;12.70;99.90
27439;DHT22;14887;51.252;7.470;2024-03-06T15:19:15;12.50;99.90
27439;DHT22;14887;51.252;7.470;2024-03-06T15:21:43;12.40;99.90
27439;DHT22;14887;51.252;7.470;2024-03-06T15:24:09;12.00;99.90
27439;DHT22;14887;51.252;7.470;2024-03-06T15:26:35;11.70;99.90
27439;DHT22;14887;51.252;7.470;2024-03-06T15:29:02;11.30;99.90
27439;DHT22;14887;51.252;7.470;2024-03-06T15:31:36;11.10;99.90
27439;DHT22;14887;51.252;7.470;2024-03-06T15:34:03;11.00;99.90
27439;DHT22;14887;51.252;7.470;2024-03-06T15:36:29;10.70;99.90
27439;DHT22;14887;51.252;7.470;2024-03-06T15:38:56;10.40;1.00
27439;DHT22;14887;51.252;7.470;2024-03-06T15:41:24;10.20;1.00
27439;DHT22;14887;51.252;7.470;2024-03-06T15:43:50;10.00;1.00
27439;DHT22;14887;51.252;7.470;2024-03-06T15:46:18;9.80;1.00
27439;DHT22;14887;51.252;7.470;2024-03-06T15:48:44;9.70;1.00
27439;DHT22;14887;51.252;7.470;2024-03-06T15:51:12;9.70;1.00
27439;DHT22;14887;51.252;7.470;2024-03-06T15:53:40;9.50;1.00
27439;DHT22;14887;51.252;7.470;2024-03-06T15:56:07;9.40;1.00
27439;DHT22;14887;51.252;7.470;2024-03-06T15:58:36;9.30;1.00
27439;DHT22;14887;51.252;7.470;2024-03-06T16:01:03;9.30;1.00
27439;DHT22;14887;51.252;7.470;2024-03-06T16:03:32;9.30;96.10